sensor_id;sensor_type;location;lat;lon;timestamp;pressure;altitude;pressure_sealevel;temperature;humidity
53550;BME280;73079;52.914;-0.982;2023-12-04T00:01:17;100034.94;;;1.03;100.00
53550;BME280;73079;52.914;-0.982;2023-12-04T00:03:43;100038.72;;;1.00;100.00
53550;BME280;73079;52.914;-0.982;2023-12-04T00:06:10;100029.66;;;1.03;100.00
53550;BME280;73079;52.914;-0.982;2023-12-04T00:08:36;100020.47;;;1.07;100.00
53550;BME280;73079;52.914;-0.982;2023-12-04T00:11:03;100015.59;;;1.02;100.00
53550;BME280;73079;52.914;-0.982;2023-12-04T00:13:29;100022.28;;;0.97;100.00
53550;BME280;73079;52.914;-0.982;2023-12-04T00:15:55;100008.47;;;1.03;100.00
53550;BME280;73079;52.914;-0.982;2023-12-04T00:18:22;100008.50;;;0.93;100.00
53550;BME280;73079;52.914;-0.982;2023-12-04T00:20:51;99994.59;;;0.91;100.00
53550;BME280;73079;52.914;-0.982;2023-12-04T00:23:17;99993.47;;;0.93;100.00
53550;BME280;73079;52.914;-0.982;2023-12-04T00:25:43;99996.78;;;0.95;100.00
53550;BME280;73079;52.914;-0.982;2023-12-04T00:28:09;99985.09;;;1.08;100.00
53550;BME280;73079;52.914;-0.982;2023-12-04T00:30:35;99983.31;;;0.89;100.00
53550;BME280;73079;52.914;-0.982;2023-12-04T00:33:01;99979.28;;;0.94;100.00
53550;BME280;73079;52.914;-0.982;2023-12-04T00:35:28;99975.75;;;0.94;100.00
53550;BME280;73079;52.914;-0.982;2023-12-04T00:37:54;99983.72;;;0.84;100.00
53550;BME280;73079;52.914;-0.982;2023-12-04T00:40:20;99964.63;;;0.90;100.00
53550;BME280;73079;52.914;-0.982;2023-12-04T00:42:45;99965.63;;;0.89;100.00
53550;BME280;73079;52.914;-0.982;2023-12-04T00:45:12;99968.53;;;0.86;100.00
53550;BME280;73079;52.914;-0.982;2023-12-04T00:47:37;99956.84;;;0.79;100.00
53550;BME280;73079;52.914;-0.982;2023-12-04T00:50:04;99964.38;;;0.84;100.00
53550;BME280;73079;52.914;-0.982;2023-12-04T00:52:31;99954.19;;;0.99;100.00
53550;BME280;73079;52.914;-0.982;2023-12-04T00:54:57;99944.31;;;0.81;100.00
53550;BME280;73079;52.914;-0.982;2023-12-04T00:57:23;99943.34;;;1.02;100.00
53550;BME280;73079;52.914;-0.982;2023-12-04T00:59:49;99940.28;;;0.97;100.00
53550;BME280;73079;52.914;-0.982;2023-12-04T01:02:14;99933.88;;;0.89;100.00
53550;BME280;73079;52.914;-0.982;2023-12-04T01:04:40;99927.19;;;0.85;100.00
53550;BME280;73079;52.914;-0.982;2023-12-04T01:07:07;99924.38;;;1.06;100.00
53550;BME280;73079;52.914;-0.982;2023-12-04T01:09:35;99921.34;;;0.91;100.00
53550;BME280;73079;52.914;-0.982;2023-12-04T01:12:01;99912.72;;;0.89;100.00
53550;BME280;73079;52.914;-0.982;2023-12-04T01:14:28;99920.78;;;0.98;100.00
53550;BME280;73079;52.914;-0.982;2023-12-04T01:16:54;99916.03;;;1.01;100.00
53550;BME280;73079;52.914;-0.982;2023-12-04T01:19:19;99899.63;;;0.98;100.00
53550;BME280;73079;52.914;-0.982;2023-12-04T01:21:45;99905.16;;;1.14;100.00
53550;BME280;73079;52.914;-0.982;2023-12-04T01:24:11;99901.94;;;1.20;100.00
53550;BME280;73079;52.914;-0.982;2023-12-04T01:26:38;99905.13;;;1.24;100.00
53550;BME280;73079;52.914;-0.982;2023-12-04T01:29:04;99899.69;;;1.25;100.00
53550;BME280;73079;52.914;-0.982;2023-12-04T01:31:30;99893.59;;;1.15;100.00
53550;BME280;73079;52.914;-0.982;2023-12-04T01:33:56;99892.84;;;1.32;100.00
53550;BME280;73079;52.914;-0.982;2023-12-04T01:36:22;99880.03;;;1.28;100.00
53550;BME280;73079;52.914;-0.982;2023-12-04T01:38:48;99884.25;;;1.21;100.00
53550;BME280;73079;52.914;-0.982;2023-12-04T01:41:14;99877.84;;;1.23;100.00
53550;BME280;73079;52.914;-0.982;2023-12-04T01:43:41;99870.63;;;1.16;100.00
53550;BME280;73079;52.914;-0.982;2023-12-04T01:46:07;99865.97;;;1.27;100.00
53550;BME280;73079;52.914;-0.982;2023-12-04T01:48:33;99861.22;;;1.31;100.00
53550;BME280;73079;52.914;-0.982;2023-12-04T01:51:02;99862.38;;;1.28;100.00
53550;BME280;73079;52.914;-0.982;2023-12-04T01:53:28;99858.63;;;1.21;100.00
53550;BME280;73079;52.914;-0.982;2023-12-04T01:55:54;99846.38;;;1.20;100.00
53550;BME280;73079;52.914;-0.982;2023-12-04T01:58:20;99848.59;;;1.25;100.00
53550;BME280;73079;52.914;-0.982;2023-12-04T02:00:48;99839.50;;;1.37;100.00
53550;BME280;73079;52.914;-0.982;2023-12-04T02:03:13;99849.22;;;1.37;100.00
53550;BME280;73079;52.914;-0.982;2023-12-04T02:05:40;99842.28;;;1.36;100.00
53550;BME280;73079;52.914;-0.982;2023-12-04T02:08:06;99834.88;;;1.39;100.00
53550;BME280;73079;52.914;-0.982;2023-12-04T02:10:32;99830.00;;;1.35;100.00
53550;BME280;73079;52.914;-0.982;2023-12-04T02:12:58;99830.16;;;1.33;100.00
53550;BME280;73079;52.914;-0.982;2023-12-04T02:15:24;99820.72;;;1.30;100.00
53550;BME280;73079;52.914;-0.982;2023-12-04T02:17:51;99811.81;;;1.31;100.00
53550;BME280;73079;52.914;-0.982;2023-12-04T02:20:17;99816.75;;;1.44;100.00
53550;BME280;73079;52.914;-0.982;2023-12-04T02:22:43;99825.41;;;1.37;100.00
53550;BME280;73079;52.914;-0.982;2023-12-04T02:25:11;99820.03;;;1.28;100.00
53550;BME280;73079;52.914;-0.982;2023-12-04T02:27:39;99820.66;;;1.40;100.00
53550;BME280;73079;52.914;-0.982;2023-12-04T02:30:08;99818.13;;;1.48;100.00
53550;BME280;73079;52.914;-0.982;2023-12-04T02:32:40;99809.25;;;1.40;100.00
53550;BME280;73079;52.914;-0.982;2023-12-04T02:35:09;99808.41;;;1.39;100.00
53550;BME280;73079;52.914;-0.982;2023-12-04T02:37:35;99797.53;;;1.42;100.00
53550;BME280;73079;52.914;-0.982;2023-12-04T02:40:02;99786.63;;;1.45;100.00
53550;BME280;73079;52.914;-0.982;2023-12-04T02:42:29;99787.13;;;1.59;100.00
53550;BME280;73079;52.914;-0.982;2023-12-04T02:44:55;99784.13;;;1.44;100.00
53550;BME280;73079;52.914;-0.982;2023-12-04T02:47:21;99779.69;;;1.44;100.00
53550;BME280;73079;52.914;-0.982;2023-12-04T02:49:47;99779.63;;;1.54;100.00
53550;BME280;73079;52.914;-0.982;2023-12-04T02:52:12;99769.31;;;1.51;100.00
53550;BME280;73079;52.914;-0.982;2023-12-04T02:54:38;99772.69;;;1.53;100.00
53550;BME280;73079;52.914;-0.982;2023-12-04T02:57:04;99770.78;;;1.63;100.00
53550;BME280;73079;52.914;-0.982;2023-12-04T02:59:31;99768.66;;;1.67;100.00
53550;BME280;73079;52.914;-0.982;2023-12-04T03:01:57;99765.56;;;1.71;100.00
53550;BME280;73079;52.914;-0.982;2023-12-04T03:04:23;99758.31;;;1.74;100.00
53550;BME280;73079;52.914;-0.982;2023-12-04T03:06:50;99759.97;;;1.75;100.00
53550;BME280;73079;52.914;-0.982;2023-12-04T03:09:21;99756.19;;;1.77;100.00
53550;BME280;73079;52.914;-0.982;2023-12-04T03:11:50;99747.66;;;1.83;100.00
53550;BME280;73079;52.914;-0.982;2023-12-04T03:14:18;99746.59;;;1.76;100.00
53550;BME280;73079;52.914;-0.982;2023-12-04T03:16:49;99748.09;;;1.79;100.00
53550;BME280;73079;52.914;-0.982;2023-12-04T03:19:17;99739.34;;;1.78;100.00
53550;BME280;73079;52.914;-0.982;2023-12-04T03:21:46;99728.34;;;1.91;100.00
53550;BME280;73079;52.914;-0.982;2023-12-04T03:24:13;99726.47;;;1.83;100.00
53550;BME280;73079;52.914;-0.982;2023-12-04T03:26:39;99717.91;;;1.89;100.00
53550;BME280;73079;52.914;-0.982;2023-12-04T03:29:07;99706.72;;;1.96;100.00
53550;BME280;73079;52.914;-0.982;2023-12-04T03:31:33;99717.56;;;2.11;100.00
53550;BME280;73079;52.914;-0.982;2023-12-04T03:34:01;99704.78;;;2.06;100.00
53550;BME280;73079;52.914;-0.982;2023-12-04T03:36:26;99699.19;;;2.09;100.00
53550;BME280;73079;52.914;-0.982;2023-12-04T03:38:52;99690.09;;;2.12;100.00
53550;BME280;73079;52.914;-0.982;2023-12-04T03:41:18;99688.56;;;2.09;100.00
53550;BME280;73079;52.914;-0.982;2023-12-04T03:43:44;99684.16;;;2.18;100.00
53550;BME280;73079;52.914;-0.982;2023-12-04T03:46:10;99678.19;;;2.16;100.00
53550;BME280;73079;52.914;-0.982;2023-12-04T03:48:35;99674.16;;;2.30;100.00
53550;BME280;73079;52.914;-0.982;2023-12-04T03:51:04;99669.97;;;2.27;100.00
53550;BME280;73079;52.914;-0.982;2023-12-04T03:53:30;99674.19;;;2.38;100.00
53550;BME280;73079;52.914;-0.982;2023-12-04T03:55:57;99669.03;;;2.36;100.00
53550;BME280;73079;52.914;-0.982;2023-12-04T03:58:23;99667.34;;;2.27;100.00
53550;BME280;73079;52.914;-0.982;2023-12-04T04:00:49;99669.97;;;2.27;100.00
53550;BME280;73079;52.914;-0.982;2023-12-04T04:03:15;99661.06;;;2.28;100.00
53550;BME280;73079;52.914;-0.982;2023-12-04T04:05:40;99651.75;;;2.24;100.00
53550;BME280;73079;52.914;-0.982;2023-12-04T04:08:08;99655.84;;;2.44;100.00
53550;BME280;73079;52.914;-0.982;2023-12-04T04:10:34;99646.41;;;2.42;100.00
53550;BME280;73079;52.914;-0.982;2023-12-04T04:13:00;99648.47;;;2.30;100.00
53550;BME280;73079;52.914;-0.982;2023-12-04T04:15:26;99642.00;;;2.33;100.00
53550;BME280;73079;52.914;-0.982;2023-12-04T04:17:52;99645.50;;;2.33;100.00
53550;BME280;73079;52.914;-0.982;2023-12-04T04:20:18;99630.28;;;2.35;100.00
53550;BME280;73079;52.914;-0.982;2023-12-04T04:22:43;99633.28;;;2.40;100.00
53550;BME280;73079;52.914;-0.982;2023-12-04T04:25:11;99632.44;;;2.40;100.00
53550;BME280;73079;52.914;-0.982;2023-12-04T04:27:36;99628.06;;;2.57;100.00
53550;BME280;73079;52.914;-0.982;2023-12-04T04:30:03;99622.28;;;2.61;100.00
53550;BME280;73079;52.914;-0.982;2023-12-04T04:32:29;99624.78;;;2.63;100.00
53550;BME280;73079;52.914;-0.982;2023-12-04T04:34:54;99620.06;;;2.48;100.00
53550;BME280;73079;52.914;-0.982;2023-12-04T04:37:20;99618.78;;;2.53;100.00
53550;BME280;73079;52.914;-0.982;2023-12-04T04:39:46;99609.91;;;2.78;100.00
53550;BME280;73079;52.914;-0.982;2023-12-04T04:42:14;99604.59;;;2.78;100.00
53550;BME280;73079;52.914;-0.982;2023-12-04T04:44:39;99608.56;;;2.74;100.00
53550;BME280;73079;52.914;-0.982;2023-12-04T04:47:05;99603.97;;;2.84;100.00
53550;BME280;73079;52.914;-0.982;2023-12-04T04:49:31;99604.47;;;2.88;100.00
53550;BME280;73079;52.914;-0.982;2023-12-04T04:51:57;99607.00;;;3.06;100.00
53550;BME280;73079;52.914;-0.982;2023-12-04T04:54:23;99599.72;;;3.24;100.00
53550;BME280;73079;52.914;-0.982;2023-12-04T04:56:49;99594.28;;;3.34;100.00
53550;BME280;73079;52.914;-0.982;2023-12-04T04:59:16;99597.06;;;3.66;100.00
53550;BME280;73079;52.914;-0.982;2023-12-04T05:01:42;99599.06;;;3.64;100.00
53550;BME280;73079;52.914;-0.982;2023-12-04T05:04:08;99593.44;;;3.67;100.00
53550;BME280;73079;52.914;-0.982;2023-12-04T05:06:33;99585.47;;;3.75;100.00
53550;BME280;73079;52.914;-0.982;2023-12-04T05:08:59;99587.81;;;3.70;100.00
53550;BME280;73079;52.914;-0.982;2023-12-04T05:11:25;99586.78;;;3.79;100.00
53550;BME280;73079;52.914;-0.982;2023-12-04T05:13:51;99577.31;;;3.85;100.00
53550;BME280;73079;52.914;-0.982;2023-12-04T05:16:18;99584.78;;;3.81;100.00
53550;BME280;73079;52.914;-0.982;2023-12-04T05:18:44;99576.13;;;3.87;100.00
53550;BME280;73079;52.914;-0.982;2023-12-04T05:21:09;99573.47;;;3.95;100.00
53550;BME280;73079;52.914;-0.982;2023-12-04T05:23:36;99577.81;;;3.80;100.00
53550;BME280;73079;52.914;-0.982;2023-12-04T05:26:02;99566.16;;;3.97;100.00
53550;BME280;73079;52.914;-0.982;2023-12-04T05:28:28;99574.81;;;3.91;100.00
53550;BME280;73079;52.914;-0.982;2023-12-04T05:30:54;99570.84;;;3.79;100.00
53550;BME280;73079;52.914;-0.982;2023-12-04T05:33:21;99568.66;;;3.91;100.00
53550;BME280;73079;52.914;-0.982;2023-12-04T05:35:48;99564.88;;;3.77;100.00
53550;BME280;73079;52.914;-0.982;2023-12-04T05:38:14;99560.22;;;3.79;100.00
53550;BME280;73079;52.914;-0.982;2023-12-04T05:40:40;99555.44;;;3.66;100.00
53550;BME280;73079;52.914;-0.982;2023-12-04T05:43:06;99554.75;;;3.64;100.00
53550;BME280;73079;52.914;-0.982;2023-12-04T05:45:32;99558.88;;;3.83;100.00
53550;BME280;73079;52.914;-0.982;2023-12-04T05:47:57;99548.28;;;3.75;100.00
53550;BME280;73079;52.914;-0.982;2023-12-04T05:50:25;99549.63;;;3.63;100.00
53550;BME280;73079;52.914;-0.982;2023-12-04T05:52:51;99547.59;;;3.81;100.00
53550;BME280;73079;52.914;-0.982;2023-12-04T05:55:17;99537.94;;;3.88;100.00
53550;BME280;73079;52.914;-0.982;2023-12-04T05:57:43;99537.66;;;3.75;100.00
53550;BME280;73079;52.914;-0.982;2023-12-04T06:00:09;99540.75;;;3.87;100.00
53550;BME280;73079;52.914;-0.982;2023-12-04T06:02:38;99540.59;;;3.80;100.00
53550;BME280;73079;52.914;-0.982;2023-12-04T06:05:04;99522.03;;;3.72;100.00
53550;BME280;73079;52.914;-0.982;2023-12-04T06:07:31;99519.72;;;3.77;100.00
53550;BME280;73079;52.914;-0.982;2023-12-04T06:09:57;99526.34;;;3.73;100.00
53550;BME280;73079;52.914;-0.982;2023-12-04T06:12:23;99513.91;;;3.73;100.00
53550;BME280;73079;52.914;-0.982;2023-12-04T06:14:49;99514.72;;;3.74;100.00
53550;BME280;73079;52.914;-0.982;2023-12-04T06:17:15;99501.44;;;3.66;100.00
53550;BME280;73079;52.914;-0.982;2023-12-04T06:19:40;99498.16;;;3.64;100.00
53550;BME280;73079;52.914;-0.982;2023-12-04T06:22:07;99500.47;;;3.67;100.00
53550;BME280;73079;52.914;-0.982;2023-12-04T06:24:34;99491.84;;;3.56;100.00
53550;BME280;73079;52.914;-0.982;2023-12-04T06:27:01;99493.47;;;3.66;100.00
53550;BME280;73079;52.914;-0.982;2023-12-04T06:29:27;99488.16;;;3.74;100.00
53550;BME280;73079;52.914;-0.982;2023-12-04T06:31:54;99481.50;;;3.78;100.00
53550;BME280;73079;52.914;-0.982;2023-12-04T06:34:21;99481.06;;;3.66;100.00
53550;BME280;73079;52.914;-0.982;2023-12-04T06:36:47;99481.22;;;3.65;100.00
53550;BME280;73079;52.914;-0.982;2023-12-04T06:39:14;99481.19;;;3.73;100.00
53550;BME280;73079;52.914;-0.982;2023-12-04T06:41:45;99474.91;;;3.66;100.00
53550;BME280;73079;52.914;-0.982;2023-12-04T06:44:12;99472.28;;;3.57;100.00
53550;BME280;73079;52.914;-0.982;2023-12-04T06:46:39;99477.59;;;3.57;100.00
53550;BME280;73079;52.914;-0.982;2023-12-04T06:49:06;99466.56;;;3.77;100.00
53550;BME280;73079;52.914;-0.982;2023-12-04T06:51:34;99459.00;;;3.57;100.00
53550;BME280;73079;52.914;-0.982;2023-12-04T06:54:00;99465.97;;;3.50;100.00
53550;BME280;73079;52.914;-0.982;2023-12-04T06:56:26;99463.97;;;3.52;100.00
53550;BME280;73079;52.914;-0.982;2023-12-04T06:58:53;99464.75;;;3.69;100.00
53550;BME280;73079;52.914;-0.982;2023-12-04T07:01:19;99451.50;;;3.61;100.00
53550;BME280;73079;52.914;-0.982;2023-12-04T07:03:45;99454.16;;;3.61;100.00
53550;BME280;73079;52.914;-0.982;2023-12-04T07:06:11;99453.31;;;3.60;100.00
53550;BME280;73079;52.914;-0.982;2023-12-04T07:08:37;99452.03;;;3.48;100.00
53550;BME280;73079;52.914;-0.982;2023-12-04T07:11:03;99444.38;;;3.53;100.00
53550;BME280;73079;52.914;-0.982;2023-12-04T07:13:29;99447.19;;;3.68;100.00
53550;BME280;73079;52.914;-0.982;2023-12-04T07:15:57;99442.84;;;3.67;100.00
53550;BME280;73079;52.914;-0.982;2023-12-04T07:18:25;99449.34;;;3.56;100.00
53550;BME280;73079;52.914;-0.982;2023-12-04T07:20:51;99444.19;;;3.63;100.00
53550;BME280;73079;52.914;-0.982;2023-12-04T07:23:16;99449.03;;;3.59;100.00
53550;BME280;73079;52.914;-0.982;2023-12-04T07:25:42;99443.03;;;3.66;100.00
53550;BME280;73079;52.914;-0.982;2023-12-04T07:28:08;99440.25;;;3.59;100.00
53550;BME280;73079;52.914;-0.982;2023-12-04T07:30:34;99443.88;;;3.66;100.00
53550;BME280;73079;52.914;-0.982;2023-12-04T07:33:01;99444.69;;;3.67;100.00
53550;BME280;73079;52.914;-0.982;2023-12-04T07:35:27;99442.03;;;3.67;100.00
53550;BME280;73079;52.914;-0.982;2023-12-04T07:37:53;99440.69;;;3.71;100.00
53550;BME280;73079;52.914;-0.982;2023-12-04T07:40:18;99443.50;;;3.69;100.00
53550;BME280;73079;52.914;-0.982;2023-12-04T07:42:45;99440.03;;;3.60;100.00
53550;BME280;73079;52.914;-0.982;2023-12-04T07:45:11;99441.06;;;3.59;100.00
53550;BME280;73079;52.914;-0.982;2023-12-04T07:47:37;99444.03;;;3.65;100.00
53550;BME280;73079;52.914;-0.982;2023-12-04T07:50:06;99439.06;;;3.61;100.00
53550;BME280;73079;52.914;-0.982;2023-12-04T07:52:31;99442.53;;;3.62;100.00
53550;BME280;73079;52.914;-0.982;2023-12-04T07:54:57;99437.38;;;3.69;100.00
53550;BME280;73079;52.914;-0.982;2023-12-04T07:57:23;99443.22;;;3.56;100.00
53550;BME280;73079;52.914;-0.982;2023-12-04T07:59:49;99444.19;;;3.63;100.00
53550;BME280;73079;52.914;-0.982;2023-12-04T08:02:14;99439.38;;;3.58;100.00
53550;BME280;73079;52.914;-0.982;2023-12-04T08:04:40;99438.72;;;3.56;100.00
53550;BME280;73079;52.914;-0.982;2023-12-04T08:07:07;99441.72;;;3.53;100.00
53550;BME280;73079;52.914;-0.982;2023-12-04T08:09:33;99448.06;;;3.52;100.00
53550;BME280;73079;52.914;-0.982;2023-12-04T08:11:59;99441.56;;;3.55;100.00
53550;BME280;73079;52.914;-0.982;2023-12-04T08:14:25;99442.56;;;3.54;100.00
53550;BME280;73079;52.914;-0.982;2023-12-04T08:16:53;99444.38;;;3.53;100.00
53550;BME280;73079;52.914;-0.982;2023-12-04T08:19:19;99440.03;;;3.60;100.00
53550;BME280;73079;52.914;-0.982;2023-12-04T08:21:45;99442.41;;;3.55;100.00
53550;BME280;73079;52.914;-0.982;2023-12-04T08:24:13;99443.22;;;3.48;100.00
53550;BME280;73079;52.914;-0.982;2023-12-04T08:26:42;99448.00;;;3.60;100.00
53550;BME280;73079;52.914;-0.982;2023-12-04T08:29:07;99448.53;;;3.56;100.00
53550;BME280;73079;52.914;-0.982;2023-12-04T08:31:33;99447.56;;;3.49;100.00
53550;BME280;73079;52.914;-0.982;2023-12-04T08:33:59;99446.88;;;3.55;100.00
53550;BME280;73079;52.914;-0.982;2023-12-04T08:36:25;99448.53;;;3.56;100.00
53550;BME280;73079;52.914;-0.982;2023-12-04T08:38:50;99446.75;;;3.40;100.00
53550;BME280;73079;52.914;-0.982;2023-12-04T08:41:18;99447.41;;;3.42;100.00
53550;BME280;73079;52.914;-0.982;2023-12-04T08:43:44;99447.72;;;3.47;100.00
53550;BME280;73079;52.914;-0.982;2023-12-04T08:46:12;99448.72;;;3.46;100.00
53550;BME280;73079;52.914;-0.982;2023-12-04T08:48:38;99442.41;;;3.39;100.00
53550;BME280;73079;52.914;-0.982;2023-12-04T08:51:07;99445.72;;;3.41;100.00
53550;BME280;73079;52.914;-0.982;2023-12-04T08:53:36;99440.75;;;3.46;100.00
53550;BME280;73079;52.914;-0.982;2023-12-04T08:56:03;99452.06;;;3.40;100.00
53550;BME280;73079;52.914;-0.982;2023-12-04T08:58:30;99448.72;;;3.46;100.00
53550;BME280;73079;52.914;-0.982;2023-12-04T09:00:56;99452.22;;;3.38;100.00
53550;BME280;73079;52.914;-0.982;2023-12-04T09:03:22;99450.72;;;3.44;100.00
53550;BME280;73079;52.914;-0.982;2023-12-04T09:05:49;99457.69;;;3.45;100.00
53550;BME280;73079;52.914;-0.982;2023-12-04T09:08:17;99446.09;;;3.38;100.00
53550;BME280;73079;52.914;-0.982;2023-12-04T09:10:43;99440.09;;;3.44;100.00
53550;BME280;73079;52.914;-0.982;2023-12-04T09:13:09;99446.75;;;3.32;100.00
53550;BME280;73079;52.914;-0.982;2023-12-04T09:15:36;99440.63;;;3.31;100.00
53550;BME280;73079;52.914;-0.982;2023-12-04T09:18:02;99439.75;;;3.47;100.00
53550;BME280;73079;52.914;-0.982;2023-12-04T09:20:28;99444.09;;;3.40;100.00
53550;BME280;73079;52.914;-0.982;2023-12-04T09:22:53;99444.09;;;3.40;100.00
53550;BME280;73079;52.914;-0.982;2023-12-04T09:27:49;99435.97;;;3.41;100.00
53550;BME280;73079;52.914;-0.982;2023-12-04T09:30:15;99447.56;;;3.40;100.00
53550;BME280;73079;52.914;-0.982;2023-12-04T09:32:46;99449.34;;;3.56;100.00
53550;BME280;73079;52.914;-0.982;2023-12-04T09:35:12;99448.06;;;3.44;100.00
53550;BME280;73079;52.914;-0.982;2023-12-04T09:37:38;99446.06;;;3.46;100.00
53550;BME280;73079;52.914;-0.982;2023-12-04T09:40:07;99449.34;;;3.65;100.00
53550;BME280;73079;52.914;-0.982;2023-12-04T09:42:34;99449.34;;;3.65;100.00
53550;BME280;73079;52.914;-0.982;2023-12-04T09:44:59;99450.38;;;3.47;100.00
53550;BME280;73079;52.914;-0.982;2023-12-04T09:47:27;99455.97;;;3.60;100.00
53550;BME280;73079;52.914;-0.982;2023-12-04T09:49:56;99456.66;;;3.63;100.00
53550;BME280;73079;52.914;-0.982;2023-12-04T09:52:22;99453.00;;;3.64;100.00
53550;BME280;73079;52.914;-0.982;2023-12-04T09:54:48;99450.19;;;3.57;100.00
53550;BME280;73079;52.914;-0.982;2023-12-04T09:57:16;99454.97;;;3.70;100.00
53550;BME280;73079;52.914;-0.982;2023-12-04T09:59:44;99456.19;;;3.59;100.00
53550;BME280;73079;52.914;-0.982;2023-12-04T10:02:10;99455.97;;;3.69;100.00
53550;BME280;73079;52.914;-0.982;2023-12-04T10:04:37;99450.34;;;3.64;100.00
53550;BME280;73079;52.914;-0.982;2023-12-04T10:07:04;99449.34;;;3.56;100.00
53550;BME280;73079;52.914;-0.982;2023-12-04T10:09:30;99450.63;;;3.77;100.00
53550;BME280;73079;52.914;-0.982;2023-12-04T10:11:57;99449.34;;;3.65;100.00
53550;BME280;73079;52.914;-0.982;2023-12-04T10:14:23;99447.69;;;3.64;100.00
53550;BME280;73079;52.914;-0.982;2023-12-04T10:16:49;99453.63;;;3.66;100.00
53550;BME280;73079;52.914;-0.982;2023-12-04T10:19:16;99453.94;;;3.79;100.00
53550;BME280;73079;52.914;-0.982;2023-12-04T10:21:43;99455.47;;;3.73;100.00
53550;BME280;73079;52.914;-0.982;2023-12-04T10:24:10;99452.94;;;3.80;100.00
53550;BME280;73079;52.914;-0.982;2023-12-04T10:26:36;99452.09;;;3.88;100.00
53550;BME280;73079;52.914;-0.982;2023-12-04T10:29:03;99451.59;;;3.84;100.00
53550;BME280;73079;52.914;-0.982;2023-12-04T10:31:32;99449.28;;;3.81;100.00
53550;BME280;73079;52.914;-0.982;2023-12-04T10:33:59;99450.56;;;3.93;100.00
53550;BME280;73079;52.914;-0.982;2023-12-04T10:36:25;99458.53;;;3.93;100.00
53550;BME280;73079;52.914;-0.982;2023-12-04T10:38:58;99454.53;;;3.97;100.00
53550;BME280;73079;52.914;-0.982;2023-12-04T10:41:26;99448.81;;;3.69;100.00
53550;BME280;73079;52.914;-0.982;2023-12-04T10:43:53;99445.59;;;3.90;100.00
53550;BME280;73079;52.914;-0.982;2023-12-04T10:46:21;99446.56;;;3.97;100.00
53550;BME280;73079;52.914;-0.982;2023-12-04T10:48:47;99442.28;;;3.88;100.00
53550;BME280;73079;52.914;-0.982;2023-12-04T10:51:15;99442.44;;;3.87;100.00
53550;BME280;73079;52.914;-0.982;2023-12-04T10:53:42;99440.84;;;3.77;100.00
53550;BME280;73079;52.914;-0.982;2023-12-04T10:56:13;99438.63;;;3.89;100.00
53550;BME280;73079;52.914;-0.982;2023-12-04T10:58:42;99433.63;;;3.94;100.00
53550;BME280;73079;52.914;-0.982;2023-12-04T11:01:09;99424.81;;;3.94;100.00
53550;BME280;73079;52.914;-0.982;2023-12-04T11:03:42;99435.31;;;3.87;100.00
53550;BME280;73079;52.914;-0.982;2023-12-04T11:06:10;99434.78;;;3.92;100.00
53550;BME280;73079;52.914;-0.982;2023-12-04T11:08:39;99422.69;;;3.89;100.00
53550;BME280;73079;52.914;-0.982;2023-12-04T11:11:11;99432.97;;;3.92;100.00
53550;BME280;73079;52.914;-0.982;2023-12-04T11:13:40;99426.03;;;3.83;100.00
53550;BME280;73079;52.914;-0.982;2023-12-04T11:16:17;99420.03;;;3.89;100.00
53550;BME280;73079;52.914;-0.982;2023-12-04T11:18:58;99421.72;;;3.82;100.00
53550;BME280;73079;52.914;-0.982;2023-12-04T11:21:28;99425.34;;;3.89;100.00
53550;BME280;73079;52.914;-0.982;2023-12-04T11:23:54;99430.47;;;3.91;100.00
53550;BME280;73079;52.914;-0.982;2023-12-04T11:26:24;99424.41;;;3.74;100.00
53550;BME280;73079;52.914;-0.982;2023-12-04T11:28:51;99420.69;;;3.91;100.00
53550;BME280;73079;52.914;-0.982;2023-12-04T11:31:18;99421.03;;;3.88;100.00
53550;BME280;73079;52.914;-0.982;2023-12-04T11:33:45;99414.34;;;3.92;100.00
53550;BME280;73079;52.914;-0.982;2023-12-04T11:36:12;99418.22;;;3.81;100.00
53550;BME280;73079;52.914;-0.982;2023-12-04T11:38:43;99416.75;;;3.79;100.00
53550;BME280;73079;52.914;-0.982;2023-12-04T11:41:14;99409.78;;;3.78;100.00
53550;BME280;73079;52.914;-0.982;2023-12-04T11:43:42;99416.91;;;3.86;100.00
53550;BME280;73079;52.914;-0.982;2023-12-04T11:46:08;99420.69;;;3.91;100.00
53550;BME280;73079;52.914;-0.982;2023-12-04T11:48:37;99424.16;;;4.00;100.00
53550;BME280;73079;52.914;-0.982;2023-12-04T11:51:05;99413.84;;;3.97;100.00
53550;BME280;73079;52.914;-0.982;2023-12-04T11:53:32;99407.72;;;3.96;100.00
53550;BME280;73079;52.914;-0.982;2023-12-04T11:56:08;99410.72;;;3.93;100.00
53550;BME280;73079;52.914;-0.982;2023-12-04T11:58:41;99405.38;;;4.02;100.00
53550;BME280;73079;52.914;-0.982;2023-12-04T12:01:08;99398.56;;;3.99;100.00
53550;BME280;73079;52.914;-0.982;2023-12-04T12:03:34;99403.94;;;4.14;100.00
53550;BME280;73079;52.914;-0.982;2023-12-04T12:06:02;99393.81;;;4.17;100.00
53550;BME280;73079;52.914;-0.982;2023-12-04T12:08:29;99394.63;;;4.18;100.00
53550;BME280;73079;52.914;-0.982;2023-12-04T12:10:55;99399.66;;;4.13;100.00
53550;BME280;73079;52.914;-0.982;2023-12-04T12:13:21;99404.31;;;4.11;100.00
53550;BME280;73079;52.914;-0.982;2023-12-04T12:15:47;99399.66;;;4.13;100.00
53550;BME280;73079;52.914;-0.982;2023-12-04T12:18:16;99402.97;;;4.15;100.00
53550;BME280;73079;52.914;-0.982;2023-12-04T12:20:42;99404.63;;;4.16;100.00
53550;BME280;73079;52.914;-0.982;2023-12-04T12:23:09;99406.09;;;4.18;100.00
53550;BME280;73079;52.914;-0.982;2023-12-04T12:25:35;99413.28;;;4.10;100.00
53550;BME280;73079;52.914;-0.982;2023-12-04T12:28:02;99414.41;;;4.15;100.00
53550;BME280;73079;52.914;-0.982;2023-12-04T12:30:28;99410.94;;;4.15;100.00
53550;BME280;73079;52.914;-0.982;2023-12-04T12:32:53;99404.81;;;4.06;100.00
53550;BME280;73079;52.914;-0.982;2023-12-04T12:35:19;99403.75;;;4.24;100.00
53550;BME280;73079;52.914;-0.982;2023-12-04T12:37:46;99407.69;;;4.28;100.00
53550;BME280;73079;52.914;-0.982;2023-12-04T12:40:13;99407.75;;;4.19;100.00
53550;BME280;73079;52.914;-0.982;2023-12-04T12:42:39;99405.44;;;4.16;100.00
53550;BME280;73079;52.914;-0.982;2023-12-04T12:45:09;99404.56;;;4.24;100.00
53550;BME280;73079;52.914;-0.982;2023-12-04T12:47:37;99402.97;;;4.15;100.00
53550;BME280;73079;52.914;-0.982;2023-12-04T12:50:03;99406.56;;;4.22;100.00